Time;durP1;ratioP1;P1;durP2;ratioP2;P2;SDS_P1;SDS_P2;PMS_P1;PMS_P2;Temp;Humidity;BMP_temperature;BMP_pressure;BME280_temperature;BME280_humidity;BME280_pressure;Samples;Min_cycle;Max_cycle;Signal;HPM_P1;HPM_P2
2022/05/27 00:01:32;;;;;;;2.90;1.55;;;18.40;67.70;;;;;;4956325;28;20481;-70
2022/05/27 00:03:59;;;;;;;7.57;1.50;;;18.50;67.70;;;;;;4972627;28;20027;-69
2022/05/27 00:06:25;;;;;;;5.03;1.60;;;18.50;67.80;;;;;;4973539;28;20019;-69
2022/05/27 00:08:50;;;;;;;4.05;1.38;;;18.50;67.80;;;;;;4973599;28;20023;-69
2022/05/27 00:11:16;;;;;;;5.30;1.55;;;18.50;67.80;;;;;;4971969;28;20034;-70
2022/05/27 00:13:42;;;;;;;2.20;1.20;;;18.50;67.80;;;;;;4940170;28;20114;-70
2022/05/27 00:16:08;;;;;;;3.55;1.33;;;18.50;67.80;;;;;;4956302;28;20106;-70
2022/05/27 00:18:34;;;;;;;4.05;1.23;;;18.50;67.90;;;;;;4956349;28;20031;-70
2022/05/27 00:21:00;;;;;;;1.95;1.20;;;18.50;67.90;;;;;;4971857;28;20038;-70
2022/05/27 00:23:25;;;;;;;2.55;1.50;;;18.50;67.90;;;;;;4956060;28;20541;-70
2022/05/27 00:25:51;;;;;;;2.78;1.67;;;18.50;67.90;;;;;;4973190;28;20021;-70
2022/05/27 00:28:17;;;;;;;4.85;1.65;;;18.50;68.00;;;;;;4973221;28;20027;-70
2022/05/27 00:30:43;;;;;;;3.42;1.20;;;18.50;67.90;;;;;;4956256;28;20023;-70
2022/05/27 00:33:09;;;;;;;3.55;1.40;;;18.50;67.90;;;;;;4956200;28;20121;-70
2022/05/27 00:35:35;;;;;;;4.15;1.70;;;18.50;68.00;;;;;;4955843;28;20235;-70
2022/05/27 00:38:00;;;;;;;4.97;1.45;;;18.50;68.10;;;;;;4972267;28;20078;-70
2022/05/27 00:40:26;;;;;;;4.75;1.60;;;18.50;68.00;;;;;;4974455;28;20026;-70
2022/05/27 00:42:52;;;;;;;4.07;1.40;;;18.50;68.10;;;;;;4943730;28;20027;-69
2022/05/27 00:45:23;;;;;;;4.43;1.63;;;18.50;68.10;;;;;;4975573;28;20113;-70
2022/05/27 00:47:51;;;;;;;3.00;1.55;;;18.50;68.10;;;;;;4976947;28;20470;-70
2022/05/27 00:50:17;;;;;;;4.30;2.28;;;18.50;68.10;;;;;;4959488;28;20023;-70
2022/05/27 00:52:45;;;;;;;3.15;1.40;;;18.50;68.10;;;;;;4975819;28;20066;-70
2022/05/27 00:55:19;;;;;;;3.05;1.23;;;18.50;68.10;;;;;;4975342;28;20023;-70
2022/05/27 00:57:50;;;;;;;3.90;1.50;;;18.50;68.10;;;;;;4959750;28;20544;-70
2022/05/27 01:00:19;;;;;;;2.53;1.38;;;18.50;68.10;;;;;;4959907;28;20504;-70
2022/05/27 01:02:44;;;;;;;2.58;1.42;;;18.50;68.20;;;;;;4975400;28;20515;-70
2022/05/27 01:05:12;;;;;;;5.25;1.45;;;18.50;68.30;;;;;;4959526;28;20027;-70
2022/05/27 01:07:37;;;;;;;2.88;1.30;;;18.50;68.30;;;;;;4976541;28;20014;-70
2022/05/27 01:10:05;;;;;;;2.15;1.30;;;18.50;68.40;;;;;;4975125;28;20052;-70
2022/05/27 01:13:01;;;;;;;2.92;1.40;;;18.50;68.40;;;;;;4959382;28;20033;-70
2022/05/27 01:15:47;;;;;;;2.05;1.30;;;18.50;68.40;;;;;;4976226;28;20441;-70
2022/05/27 01:18:20;;;;;;;2.08;1.10;;;18.50;68.40;;;;;;4971328;28;20045;-70
2022/05/27 01:21:02;;;;;;;3.97;1.60;;;18.50;68.40;;;;;;4975364;28;20106;-70
2022/05/27 01:23:48;;;;;;;3.35;1.35;;;18.50;68.40;;;;;;4955380;29;20024;-70
2022/05/27 01:26:49;;;;;;;2.22;1.40;;;18.50;68.50;;;;;;4970202;28;20023;-70
2022/05/27 01:29:42;;;;;;;2.40;1.30;;;18.50;68.50;;;;;;4971749;28;20513;-70
2022/05/27 01:32:15;;;;;;;2.50;1.33;;;18.50;68.50;;;;;;4955491;29;20027;-70
2022/05/27 01:34:52;;;;;;;2.15;1.23;;;18.50;68.40;;;;;;4939468;29;20031;-70
2022/05/27 01:37:27;;;;;;;3.92;1.50;;;18.50;68.40;;;;;;4956530;29;20015;-70
2022/05/27 01:39:59;;;;;;;3.08;1.48;;;18.50;68.40;;;;;;4956714;29;20371;-69
2022/05/27 01:42:25;;;;;;;;;;;18.50;68.40;;;;;;4939550;28;20082;-69
2022/05/27 01:45:01;;;;;;;6.78;1.40;;;18.50;68.60;;;;;;4956358;29;19918;-70
2022/05/27 01:47:53;;;;;;;4.32;1.40;;;18.50;68.50;;;;;;4971408;28;20115;-70
2022/05/27 01:50:20;;;;;;;2.60;1.38;;;18.50;68.50;;;;;;4955104;28;20023;-70
2022/05/27 01:52:52;;;;;;;4.03;1.58;;;18.50;68.50;;;;;;4970673;28;20031;-70
2022/05/27 01:55:40;;;;;;;2.85;1.33;;;18.50;68.50;;;;;;4956230;29;20035;-70
2022/05/27 01:58:13;;;;;;;5.45;1.25;;;18.50;68.50;;;;;;4955197;29;20051;-70
2022/05/27 02:00:40;;;;;;;1.95;1.40;;;18.50;68.40;;;;;;4971277;28;20027;-70
2022/05/27 02:03:19;;;;;;;3.92;1.30;;;18.50;68.50;;;;;;4939141;29;20021;-70
2022/05/27 02:05:53;;;;;;;1.25;1.00;;;18.50;68.50;;;;;;4971069;28;20409;-70
2022/05/27 02:08:20;;;;;;;4.18;1.40;;;18.50;68.50;;;;;;4970703;28;20494;-70
2022/05/27 02:11:02;;;;;;;3.10;1.33;;;18.50;68.50;;;;;;4970984;28;20490;-70
2022/05/27 02:13:42;;;;;;;3.10;1.40;;;18.50;68.50;;;;;;4970949;28;20397;-70
2022/05/27 02:16:15;;;;;;;2.30;1.20;;;18.50;68.50;;;;;;4938897;29;20083;-70
2022/05/27 02:18:48;;;;;;;2.35;1.20;;;18.50;68.50;;;;;;4954918;29;20030;-70
2022/05/27 02:21:17;;;;;;;;;;;18.50;68.50;;;;;;4974178;28;20038;-70
2022/05/27 02:23:46;;;;;;;3.75;1.25;;;18.50;69.70;;;;;;4975033;28;19945;-70
2022/05/27 02:26:18;;;;;;;3.20;1.27;;;18.50;68.70;;;;;;4958305;28;20057;-70
2022/05/27 02:28:46;;;;;;;1.90;1.30;;;18.50;68.70;;;;;;4958701;28;20019;-70
2022/05/27 02:31:23;;;;;;;1.98;1.17;;;18.50;68.70;;;;;;4958003;28;20027;-70
2022/05/27 02:36:43;;;;;;;4.80;1.55;;;18.50;68.70;;;;;;4960464;28;20092;-70
2022/05/27 02:39:09;;;;;;;4.35;1.38;;;18.50;68.80;;;;;;4957805;28;20053;-70
2022/05/27 02:41:46;;;;;;;4.85;1.35;;;18.50;68.70;;;;;;4957537;28;20482;-70
2022/05/27 02:44:30;;;;;;;3.67;1.27;;;18.50;68.80;;;;;;4973558;28;20450;-70
2022/05/27 02:47:24;;;;;;;4.25;1.45;;;18.50;68.70;;;;;;4974817;28;20039;-70
2022/05/27 02:50:26;;;;;;;3.20;1.45;;;18.50;68.80;;;;;;4989372;28;20030;-70
2022/05/27 02:53:10;;;;;;;2.22;1.13;;;18.50;68.80;;;;;;4973555;28;20094;-70
2022/05/27 02:55:48;;;;;;;3.97;1.60;;;18.50;68.80;;;;;;4973387;28;20508;-70
2022/05/27 02:58:14;;;;;;;1.73;1.10;;;18.50;68.80;;;;;;4974375;28;20055;-70
2022/05/27 03:00:40;;;;;;;3.85;1.20;;;18.50;68.80;;;;;;4973520;28;20054;-70
2022/05/27 03:03:06;;;;;;;3.17;1.20;;;18.50;68.80;;;;;;4956234;28;20031;-70
2022/05/27 03:06:09;;;;;;;2.72;1.20;;;18.60;68.90;;;;;;4974127;28;20111;-70
2022/05/27 03:09:09;;;;;;;1.65;1.00;;;18.60;68.90;;;;;;4959269;28;20022;-70
2022/05/27 03:11:39;;;;;;;1.90;1.40;;;18.60;68.90;;;;;;4972923;28;20093;-70
2022/05/27 03:14:10;;;;;;;1.95;1.17;;;18.60;68.90;;;;;;4956915;28;20030;-70
2022/05/27 03:17:06;;;;;;;3.25;1.13;;;18.60;68.90;;;;;;4974125;28;20038;-70
2022/05/27 03:19:56;;;;;;;4.38;1.52;;;18.60;69.50;;;;;;4973867;28;20049;-70
2022/05/27 03:22:39;;;;;;;3.20;1.17;;;18.60;68.90;;;;;;4973928;28;20027;-70
2022/05/27 03:25:27;;;;;;;2.88;1.30;;;18.60;68.90;;;;;;4973088;28;20023;-70
2022/05/27 03:27:58;;;;;;;2.22;1.30;;;18.60;68.80;;;;;;4973927;28;20106;-70
2022/05/27 03:30:32;;;;;;;2.47;1.02;;;18.60;68.80;;;;;;4972922;28;20062;-70
2022/05/27 03:33:00;;;;;;;2.60;1.23;;;18.60;69.90;;;;;;4957035;28;20149;-70
2022/05/27 03:36:03;;;;;;;3.70;1.20;;;18.60;68.80;;;;;;4972252;28;20038;-69
2022/05/27 03:38:35;;;;;;;;;;;18.50;68.80;;;;;;4933564;29;20144;-69
2022/05/27 03:41:08;;;;;;;3.38;1.20;;;18.60;68.90;;;;;;4933379;29;19999;-69
2022/05/27 03:43:35;;;;;;;2.03;1.15;;;18.50;68.80;;;;;;4901375;29;20074;-69
2022/05/27 03:46:00;;;;;;;3.47;1.15;;;18.50;68.90;;;;;;4901701;29;20048;-69
2022/05/27 03:48:27;;;;;;;2.78;1.05;;;18.50;68.80;;;;;;4916930;29;20417;-69
2022/05/27 03:50:55;;;;;;;3.72;1.50;;;18.50;68.80;;;;;;4933248;29;20031;-69
2022/05/27 03:53:21;;;;;;;4.68;1.20;;;18.50;68.80;;;;;;4901746;29;20118;-69
2022/05/27 03:55:47;;;;;;;1.50;1.08;;;18.60;68.90;;;;;;4901669;29;20118;-69
2022/05/27 03:58:13;;;;;;;2.55;1.42;;;18.50;68.80;;;;;;4901640;29;20028;-69
2022/05/27 04:00:39;;;;;;;4.30;1.23;;;18.60;68.90;;;;;;4901405;29;20028;-70
2022/05/27 04:03:05;;;;;;;2.03;1.10;;;18.60;68.90;;;;;;4901311;29;20054;-70
2022/05/27 04:05:31;;;;;;;1.75;1.00;;;18.60;68.90;;;;;;4901522;29;20463;-70
2022/05/27 04:07:56;;;;;;;3.88;1.17;;;18.50;68.80;;;;;;4901458;29;20078;-70
2022/05/27 04:10:22;;;;;;;2.90;1.30;;;18.50;68.80;;;;;;4901290;29;20119;-70
2022/05/27 04:12:48;;;;;;;3.20;1.50;;;18.50;68.90;;;;;;4932851;29;20219;-70
2022/05/27 04:15:13;;;;;;;3.55;1.35;;;18.60;68.90;;;;;;4937718;28;20031;-70
2022/05/27 04:17:41;;;;;;;2.80;1.20;;;18.50;68.90;;;;;;4977420;28;20023;-70
2022/05/27 04:20:08;;;;;;;3.20;1.10;;;18.50;68.90;;;;;;4977337;28;20015;-69
2022/05/27 04:22:33;;;;;;;4.50;1.35;;;18.50;69.00;;;;;;4977084;28;20019;-70
2022/05/27 04:24:59;;;;;;;1.95;1.02;;;18.50;68.90;;;;;;4976166;28;20038;-70
2022/05/27 04:27:25;;;;;;;1.52;1.30;;;18.50;69.00;;;;;;4977203;28;20450;-70
2022/05/27 04:29:51;;;;;;;2.78;1.20;;;18.50;69.00;;;;;;4960066;28;20479;-70
2022/05/27 04:32:17;;;;;;;2.17;1.20;;;18.60;69.00;;;;;;4975875;28;20088;-70
2022/05/27 04:34:43;;;;;;;2.55;1.15;;;18.60;69.00;;;;;;4976998;28;20508;-70
2022/05/27 04:37:09;;;;;;;1.42;1.15;;;18.50;69.00;;;;;;4976064;28;20023;-70
2022/05/27 04:39:35;;;;;;;5.18;1.17;;;18.50;69.00;;;;;;4975804;28;20393;-70
2022/05/27 04:42:00;;;;;;;4.13;1.80;;;18.60;69.10;;;;;;4976177;28;20027;-70
2022/05/27 04:44:26;;;;;;;2.42;1.33;;;18.50;69.00;;;;;;4975674;28;20022;-70
2022/05/27 04:46:52;;;;;;;3.90;1.08;;;18.50;69.00;;;;;;4976442;28;20502;-70
2022/05/27 04:52:02;;;;;;;2.13;1.00;;;18.50;69.10;;;;;;4975820;28;20037;-70
2022/05/27 04:54:28;;;;;;;1.60;1.10;;;18.60;69.10;;;;;;4959425;28;20359;-70
2022/05/27 04:56:55;;;;;;;1.85;1.00;;;18.60;69.10;;;;;;4975483;28;20025;-70
2022/05/27 04:59:20;;;;;;;2.30;1.48;;;18.50;69.00;;;;;;4975483;28;20019;-70
2022/05/27 05:01:46;;;;;;;4.78;1.58;;;18.50;69.10;;;;;;4975270;28;20359;-70
2022/05/27 05:04:11;;;;;;;1.98;1.10;;;18.50;69.10;;;;;;4977015;28;20110;-70
2022/05/27 05:06:37;;;;;;;2.03;1.17;;;18.50;69.20;;;;;;4976503;28;20062;-70
2022/05/27 05:09:03;;;;;;;3.85;1.35;;;18.50;69.10;;;;;;4975275;28;20034;-70
2022/05/27 05:11:29;;;;;;;3.42;1.00;;;18.60;69.20;;;;;;4957672;28;20074;-69
2022/05/27 05:13:54;;;;;;;2.65;0.90;;;18.60;69.20;;;;;;4972282;28;20058;-70
2022/05/27 05:16:20;;;;;;;4.70;1.33;;;18.60;69.20;;;;;;4973074;28;20102;-70
2022/05/27 05:18:46;;;;;;;2.85;0.90;;;18.60;69.20;;;;;;4971666;28;20097;-70
2022/05/27 05:21:12;;;;;;;1.98;1.10;;;18.60;69.30;;;;;;4973258;28;20102;-70
2022/05/27 05:23:38;;;;;;;4.43;1.65;;;18.60;69.30;;;;;;4972984;28;20079;-70
2022/05/27 05:26:03;;;;;;;2.05;1.20;;;18.50;69.20;;;;;;4974529;28;20027;-71
2022/05/27 05:28:29;;;;;;;3.20;1.08;;;18.60;69.20;;;;;;4976746;28;20023;-71
2022/05/27 05:30:54;;;;;;;2.78;1.30;;;18.50;69.10;;;;;;4975564;28;20034;-71
2022/05/27 05:33:20;;;;;;;3.05;1.00;;;18.50;69.10;;;;;;4975481;28;20421;-71
2022/05/27 05:35:46;;;;;;;3.00;1.10;;;18.60;69.10;;;;;;4976604;28;20457;-71
2022/05/27 05:38:12;;;;;;;4.55;1.10;;;18.50;69.00;;;;;;4976583;28;20023;-72
2022/05/27 05:40:38;;;;;;;2.13;1.00;;;18.50;69.00;;;;;;4975231;28;20107;-71
2022/05/27 05:43:04;;;;;;;5.57;1.00;;;18.60;69.00;;;;;;4975182;28;20058;-71
2022/05/27 05:45:30;;;;;;;9.48;1.55;;;18.60;69.00;;;;;;4976030;28;20509;-71
2022/05/27 05:47:55;;;;;;;3.25;1.45;;;18.50;69.00;;;;;;4959184;28;20416;-70
2022/05/27 05:50:21;;;;;;;1.63;1.02;;;18.50;68.90;;;;;;4975101;28;20081;-70
2022/05/27 05:52:47;;;;;;;0.77;0.77;;;18.50;68.90;;;;;;4976128;28;20105;-70
2022/05/27 05:55:13;;;;;;;2.00;0.90;;;18.50;68.90;;;;;;4959000;28;20062;-70
2022/05/27 05:57:43;;;;;;;6.38;1.13;;;18.50;68.90;;;;;;4976038;28;20066;-71
2022/05/27 06:00:11;;;;;;;3.50;0.95;;;18.50;68.90;;;;;;4958762;28;20027;-71
2022/05/27 06:02:36;;;;;;;3.85;1.05;;;18.50;68.90;;;;;;4942886;28;20023;-71
2022/05/27 06:05:03;;;;;;;2.10;0.90;;;18.50;68.80;;;;;;4958779;28;20486;-70
2022/05/27 06:07:30;;;;;;;3.42;1.10;;;18.50;68.70;;;;;;4959008;28;20430;-70
2022/05/27 06:09:56;;;;;;;8.32;1.83;;;18.50;68.60;;;;;;4958469;28;20393;-70
2022/05/27 06:12:23;;;;;;;2.92;0.80;;;18.50;68.50;;;;;;4974249;28;20033;-70
2022/05/27 06:14:51;;;;;;;1.80;0.90;;;18.50;68.40;;;;;;4974947;28;20031;-71
2022/05/27 06:17:17;;;;;;;1.45;0.80;;;18.50;68.40;;;;;;4974322;28;20027;-71
2022/05/27 06:19:42;;;;;;;1.38;1.13;;;18.50;68.30;;;;;;4957876;28;20038;-71
2022/05/27 06:22:08;;;;;;;2.10;1.00;;;18.50;68.30;;;;;;4975133;28;20029;-71
2022/05/27 06:24:34;;;;;;;2.70;0.95;;;18.50;68.20;;;;;;4975278;28;20035;-71
2022/05/27 06:26:59;;;;;;;2.38;0.85;;;18.50;68.20;;;;;;4975121;28;20489;-71
2022/05/27 06:34:53;;;;;;;2.53;0.90;;;18.50;68.20;;;;;;4972392;28;20453;-71
2022/05/27 06:37:19;;;;;;;2.10;1.02;;;18.50;68.10;;;;;;4955833;28;21168;-70
2022/05/27 06:39:45;;;;;;;1.63;0.80;;;18.50;68.10;;;;;;4972168;28;20023;-70
2022/05/27 06:42:11;;;;;;;3.90;1.10;;;18.50;68.00;;;;;;4970156;28;20433;-70
2022/05/27 06:44:37;;;;;;;14.88;2.15;;;18.50;68.00;;;;;;4973090;28;20102;-72
2022/05/27 06:47:04;;;;;;;15.38;2.08;;;18.50;68.00;;;;;;4973236;28;20178;-72
2022/05/27 06:49:29;;;;;;;12.15;2.13;;;18.50;68.10;;;;;;4973420;28;20030;-72
2022/05/27 06:51:55;;;;;;;12.60;2.05;;;18.40;68.00;;;;;;4973372;28;20414;-71
2022/05/27 06:54:22;;;;;;;11.77;2.28;;;18.50;68.20;;;;;;4974528;28;20486;-72
2022/05/27 06:56:52;;;;;;;11.45;1.77;;;18.50;68.30;;;;;;4974448;28;20161;-71
2022/05/27 06:59:19;;;;;;;6.80;1.52;;;18.50;68.40;;;;;;4973518;28;20011;-71
2022/05/27 07:01:45;;;;;;;23.23;2.20;;;18.50;68.40;;;;;;4974551;28;20157;-71
2022/05/27 07:04:11;;;;;;;17.50;2.63;;;18.50;68.40;;;;;;4974383;28;20051;-71
2022/05/27 07:06:43;;;;;;;8.32;1.83;;;18.50;68.40;;;;;;4973330;28;20383;-71
2022/05/27 07:09:09;;;;;;;12.40;2.05;;;18.50;68.50;;;;;;4973265;28;20034;-71
2022/05/27 07:11:35;;;;;;;15.48;2.17;;;18.50;68.50;;;;;;4973018;28;20162;-71
2022/05/27 07:14:01;;;;;;;14.85;2.35;;;18.50;68.50;;;;;;4973010;28;20023;-71
2022/05/27 07:16:27;;;;;;;13.82;2.15;;;18.50;68.50;;;;;;4974219;28;20492;-71
2022/05/27 07:18:54;;;;;;;15.20;3.15;;;18.50;68.50;;;;;;4974042;28;20030;-71
2022/05/27 07:21:19;;;;;;;10.20;2.15;;;18.50;68.50;;;;;;4972832;28;20098;-71
2022/05/27 07:23:45;;;;;;;10.98;2.42;;;18.50;68.50;;;;;;4973918;28;20107;-71
2022/05/27 07:26:11;;;;;;;10.38;2.45;;;18.50;68.50;;;;;;4972699;28;20019;-71
2022/05/27 07:28:37;;;;;;;15.85;1.92;;;18.50;68.50;;;;;;4972860;28;20085;-71
2022/05/27 07:31:02;;;;;;;6.35;1.90;;;18.50;68.50;;;;;;4974067;28;20023;-71
2022/05/27 07:33:28;;;;;;;15.77;2.75;;;18.50;68.40;;;;;;4972955;28;20026;-71
2022/05/27 07:35:54;;;;;;;15.30;2.45;;;18.50;69.50;;;;;;4972681;28;20109;-71
2022/05/27 07:38:20;;;;;;;11.63;2.20;;;18.50;68.40;;;;;;4956694;28;20027;-71
2022/05/27 07:40:45;;;;;;;11.88;1.90;;;18.50;68.40;;;;;;4972532;28;20026;-71
2022/05/27 07:43:12;;;;;;;11.75;2.33;;;18.40;68.30;;;;;;4974117;28;20022;-71
2022/05/27 07:45:38;;;;;;;10.25;2.35;;;18.50;68.40;;;;;;4973575;28;20046;-71
2022/05/27 07:48:05;;;;;;;10.38;2.47;;;18.50;68.40;;;;;;4956685;28;20023;-71
2022/05/27 07:50:30;;;;;;;7.03;1.95;;;18.50;68.40;;;;;;4972175;28;20109;-71
2022/05/27 07:52:56;;;;;;;15.38;2.50;;;18.40;68.30;;;;;;4973613;28;20548;-71
2022/05/27 07:55:21;;;;;;;9.98;1.98;;;18.50;69.40;;;;;;4973516;28;20027;-71
2022/05/27 07:57:47;;;;;;;12.38;2.35;;;18.50;68.40;;;;;;4973494;28;20023;-71
2022/05/27 08:00:24;;;;;;;11.45;2.67;;;18.50;68.30;;;;;;4972327;28;20022;-71
2022/05/27 08:02:50;;;;;;;6.90;1.95;;;18.50;68.30;;;;;;4972380;28;20511;-72
2022/05/27 08:05:21;;;;;;;7.03;1.90;;;18.40;68.30;;;;;;4973665;28;20110;-71
2022/05/27 08:07:46;;;;;;;8.18;2.30;;;18.40;68.20;;;;;;4956486;28;20034;-71
2022/05/27 08:10:15;;;;;;;7.45;2.03;;;18.40;68.20;;;;;;4956125;28;20401;-71
2022/05/27 08:12:41;;;;;;;8.13;1.85;;;18.40;68.20;;;;;;4956621;28;20405;-71
2022/05/27 08:15:08;;;;;;;11.23;1.77;;;18.40;68.20;;;;;;4972420;28;20026;-71
2022/05/27 08:17:34;;;;;;;4.88;1.65;;;18.40;68.20;;;;;;4973507;28;20066;-71
2022/05/27 08:20:00;;;;;;;8.23;1.63;;;18.40;68.10;;;;;;4973236;28;20019;-71
2022/05/27 08:22:26;;;;;;;6.45;1.77;;;18.40;68.20;;;;;;4972142;28;20062;-71
2022/05/27 08:24:52;;;;;;;7.88;1.80;;;18.40;68.10;;;;;;4972917;28;20023;-71
2022/05/27 08:27:18;;;;;;;4.05;1.85;;;18.40;68.10;;;;;;4973525;28;20069;-71
2022/05/27 08:29:44;;;;;;;9.30;1.77;;;18.40;68.10;;;;;;4973330;28;20026;-71
2022/05/27 08:32:09;;;;;;;11.25;2.03;;;18.40;68.10;;;;;;4973298;28;20548;-71
2022/05/27 08:40:32;;;;;;;6.70;1.70;;;18.40;68.00;;;;;;4973077;28;20030;-71
2022/05/27 08:43:15;;;;;;;6.13;1.73;;;18.40;68.00;;;;;;4972134;28;20059;-71
2022/05/27 08:45:47;;;;;;;7.82;2.15;;;18.40;68.10;;;;;;4973001;28;20055;-71
2022/05/27 08:48:12;;;;;;;11.90;1.80;;;18.40;68.00;;;;;;4973167;28;20035;-71
2022/05/27 08:50:42;;;;;;;4.85;1.83;;;18.40;68.00;;;;;;4956057;28;20034;-71
2022/05/27 08:53:22;;;;;;;7.63;1.55;;;18.40;68.00;;;;;;4971732;28;20158;-71
2022/05/27 09:01:30;;;;;;;4.95;1.58;;;18.40;68.00;;;;;;4974657;28;20516;-71
2022/05/27 09:04:21;;;;;;;5.03;1.50;;;18.40;68.10;;;;;;4959601;28;20027;-71
2022/05/27 09:06:52;;;;;;;4.35;1.27;;;18.40;68.10;;;;;;4975185;28;20055;-71
2022/05/27 09:09:26;;;;;;;8.45;1.48;;;18.40;68.00;;;;;;4975376;28;20480;-71
2022/05/27 09:12:01;;;;;;;4.82;1.15;;;18.40;68.60;;;;;;4959144;28;20489;-72
2022/05/27 09:14:27;;;;;;;6.18;1.63;;;18.40;68.00;;;;;;4976438;28;20066;-71
2022/05/27 09:17:06;;;;;;;5.45;1.38;;;18.40;68.00;;;;;;4959127;28;20433;-71
2022/05/27 09:19:58;;;;;;;4.50;1.58;;;18.40;68.00;;;;;;4976279;28;20022;-71
2022/05/27 09:22:45;;;;;;;2.58;1.40;;;18.40;68.00;;;;;;4964167;28;20043;-71
2022/05/27 09:25:30;;;;;;;7.38;1.58;;;18.40;68.10;;;;;;4956082;29;20094;-71
2022/05/27 09:28:15;;;;;;;3.13;1.50;;;18.30;68.00;;;;;;4956874;29;20027;-71
2022/05/27 09:30:40;;;;;;;4.47;1.40;;;18.40;68.00;;;;;;4956960;29;20106;-72
2022/05/27 09:33:10;;;;;;;3.92;1.27;;;18.40;68.00;;;;;;4955529;29;20103;-72
2022/05/27 09:35:48;;;;;;;2.65;1.27;;;18.40;68.00;;;;;;4956759;29;20532;-72
2022/05/27 09:38:17;;;;;;;5.13;1.08;;;18.40;68.00;;;;;;4955588;29;20024;-72
2022/05/27 09:40:55;;;;;;;6.75;1.63;;;18.40;68.00;;;;;;4955553;29;20038;-72
2022/05/27 09:43:33;;;;;;;5.10;1.25;;;18.40;68.00;;;;;;4955586;29;20114;-71
2022/05/27 09:46:00;;;;;;;6.32;1.42;;;18.40;68.00;;;;;;4956223;29;20525;-71
2022/05/27 09:48:27;;;;;;;3.47;1.40;;;18.40;68.00;;;;;;4955426;29;20528;-71
2022/05/27 09:50:53;;;;;;;8.65;1.42;;;18.30;67.90;;;;;;4955114;29;20110;-71
2022/05/27 09:53:40;;;;;;;6.72;1.55;;;18.30;67.90;;;;;;4955403;29;20118;-71
2022/05/27 09:56:11;;;;;;;6.05;1.30;;;18.30;68.00;;;;;;4955143;29;20034;-71
2022/05/27 09:58:47;;;;;;;2.45;0.95;;;18.30;67.90;;;;;;4955326;29;20030;-71
2022/05/27 10:01:26;;;;;;;4.65;1.40;;;18.30;68.00;;;;;;4955222;29;20033;-71
2022/05/27 10:04:08;;;;;;;4.93;1.35;;;18.30;68.00;;;;;;4956274;29;20426;-71
2022/05/27 10:06:35;;;;;;;5.03;1.10;;;18.30;67.90;;;;;;4955138;29;20035;-71
2022/05/27 10:09:07;;;;;;;4.80;1.55;;;18.30;67.90;;;;;;4954899;29;20023;-71
2022/05/27 10:11:33;;;;;;;11.40;1.38;;;18.30;67.90;;;;;;4938524;28;20538;-71
2022/05/27 10:14:20;;;;;;;4.20;1.10;;;18.40;68.00;;;;;;4954585;29;20509;-71
2022/05/27 10:17:16;;;;;;;3.38;1.20;;;18.30;67.90;;;;;;4956161;29;20102;-71
2022/05/27 10:19:44;;;;;;;2.45;1.20;;;18.30;68.00;;;;;;4956690;28;20046;-71
2022/05/27 10:22:30;;;;;;;3.40;1.38;;;18.30;67.90;;;;;;4964168;28;20023;-71
2022/05/27 10:24:57;;;;;;;5.35;1.10;;;18.30;67.90;;;;;;4955653;29;20043;-71
2022/05/27 10:27:23;;;;;;;2.85;1.08;;;18.30;67.90;;;;;;4954937;29;20104;-71
2022/05/27 10:30:00;;;;;;;4.93;1.40;;;18.30;67.90;;;;;;4954485;29;20023;-71
2022/05/27 10:32:27;;;;;;;2.08;1.05;;;18.30;67.90;;;;;;4954559;29;20517;-71
2022/05/27 10:34:53;;;;;;;6.05;1.45;;;18.40;68.00;;;;;;4954097;29;20398;-71
2022/05/27 10:37:29;;;;;;;3.60;1.20;;;18.30;67.90;;;;;;4954536;29;20027;-71
2022/05/27 10:40:06;;;;;;;2.85;1.27;;;18.30;67.90;;;;;;4955765;29;20031;-71
2022/05/27 10:42:51;;;;;;;3.35;1.10;;;18.30;67.90;;;;;;4955585;29;20031;-71
2022/05/27 10:45:29;;;;;;;3.00;1.02;;;18.30;67.90;;;;;;4955591;29;20043;-71
2022/05/27 10:48:37;;;;;;;2.75;1.13;;;18.30;67.80;;;;;;4954384;29;20028;-71
2022/05/27 10:51:07;;;;;;;4.40;1.30;;;18.30;67.80;;;;;;4953287;29;20089;-71
2022/05/27 10:53:36;;;;;;;2.90;1.30;;;18.30;67.90;;;;;;4953041;29;20039;-72
2022/05/27 10:56:43;;;;;;;5.13;1.23;;;18.30;67.80;;;;;;4953187;29;20151;-72
2022/05/27 11:02:29;;;;;;;4.18;1.40;;;18.30;67.80;;;;;;4953261;29;20046;-72
2022/05/27 11:05:20;;;;;;;3.00;0.98;;;18.30;67.80;;;;;;4952884;29;20034;-72
2022/05/27 11:08:04;;;;;;;1.60;1.10;;;18.30;67.90;;;;;;4953098;29;20144;-72
2022/05/27 11:10:44;;;;;;;4.80;1.50;;;18.30;67.90;;;;;;4953194;29;20497;-72
2022/05/27 11:16:22;;;;;;;2.05;1.08;;;18.30;67.80;;;;;;4952833;29;20114;-72
2022/05/27 11:19:10;;;;;;;2.95;1.33;;;18.30;67.80;;;;;;4952103;29;20114;-72
2022/05/27 11:21:59;;;;;;;2.50;1.20;;;18.30;67.80;;;;;;4970374;28;20034;-72
2022/05/27 11:24:49;;;;;;;3.60;1.27;;;18.30;67.90;;;;;;4971129;28;20037;-71
2022/05/27 11:27:48;;;;;;;2.53;1.00;;;18.30;67.90;;;;;;4968713;28;20071;-71
2022/05/27 11:30:14;;;;;;;8.38;1.10;;;18.30;67.80;;;;;;4952656;29;20027;-71
2022/05/27 11:32:58;;;;;;;2.95;1.20;;;18.30;67.90;;;;;;4952478;29;20054;-71
2022/05/27 11:35:55;;;;;;;3.03;1.00;;;18.30;67.80;;;;;;4952688;29;20420;-71
2022/05/27 11:38:42;;;;;;;3.05;1.10;;;18.30;67.80;;;;;;4938421;29;20111;-71
2022/05/27 11:41:24;;;;;;;3.35;1.15;;;18.30;67.80;;;;;;4952436;29;20035;-71
2022/05/27 11:43:56;;;;;;;2.73;1.13;;;18.40;67.90;;;;;;4936591;29;20027;-71
2022/05/27 11:46:31;;;;;;;3.63;1.15;;;18.30;67.80;;;;;;4951817;29;20298;-71
2022/05/27 11:49:24;;;;;;;2.75;0.98;;;18.40;67.90;;;;;;4952473;29;20071;-71
2022/05/27 11:52:14;;;;;;;3.13;1.00;;;18.30;67.80;;;;;;4952418;29;20511;-71
2022/05/27 11:55:01;;;;;;;3.90;0.80;;;18.40;67.90;;;;;;4936634;29;20085;-71
2022/05/27 11:57:46;;;;;;;3.50;1.00;;;18.40;67.90;;;;;;4952357;28;20387;-71
2022/05/27 12:00:15;;;;;;;3.10;1.40;;;18.30;67.90;;;;;;4973672;28;20026;-71
2022/05/27 12:02:54;;;;;;;3.80;1.27;;;18.40;67.90;;;;;;4972157;28;20430;-71
2022/05/27 12:05:33;;;;;;;2.95;1.02;;;18.40;67.90;;;;;;4972425;28;20038;-71
2022/05/27 12:08:01;;;;;;;2.25;1.23;;;18.40;67.90;;;;;;4972278;28;20023;-71
2022/05/27 12:10:40;;;;;;;3.50;1.27;;;18.40;67.90;;;;;;4956537;28;20050;-71
2022/05/27 12:13:24;;;;;;;2.30;1.20;;;18.40;67.90;;;;;;4973461;28;20450;-71
2022/05/27 12:16:02;;;;;;;3.22;1.00;;;18.40;67.90;;;;;;4972360;28;20023;-71
2022/05/27 12:18:49;;;;;;;2.80;1.25;;;18.40;67.90;;;;;;4956707;28;20552;-71
2022/05/27 12:21:21;;;;;;;1.60;1.08;;;18.40;67.90;;;;;;4956222;28;20015;-71
2022/05/27 12:24:01;;;;;;;2.38;1.00;;;18.40;67.90;;;;;;4956675;28;20401;-71
2022/05/27 12:26:32;;;;;;;2.28;1.00;;;18.40;67.90;;;;;;4957572;28;20093;-71
2022/05/27 12:28:59;;;;;;;1.83;1.00;;;18.40;67.90;;;;;;4956616;28;20027;-72
2022/05/27 12:31:24;;;;;;;2.65;0.98;;;18.40;68.00;;;;;;4972061;28;20030;-71
2022/05/27 12:33:50;;;;;;;2.28;1.00;;;18.40;67.90;;;;;;4956174;28;20507;-71
2022/05/27 12:36:23;;;;;;;3.63;1.33;;;18.40;67.90;;;;;;4975611;28;20026;-71
2022/05/27 12:38:49;;;;;;;2.13;0.98;;;18.40;68.00;;;;;;4975856;28;20019;-71
2022/05/27 12:41:35;;;;;;;1.90;1.13;;;18.40;67.90;;;;;;4959923;28;20429;-71
2022/05/27 12:44:03;;;;;;;2.15;1.02;;;18.40;67.90;;;;;;4975957;28;20027;-71
2022/05/27 12:46:54;;;;;;;2.22;1.00;;;18.40;67.90;;;;;;4976631;28;20047;-71
2022/05/27 12:49:24;;;;;;;2.60;1.20;;;18.40;69.00;;;;;;4960117;28;20105;-71
2022/05/27 12:51:50;;;;;;;3.22;1.00;;;18.40;67.90;;;;;;4975767;28;20027;-71
2022/05/27 12:54:44;;;;;;;2.00;0.85;;;18.40;67.90;;;;;;4959342;28;20027;-71
2022/05/27 13:03:32;;;;;;;1.98;1.00;;;18.40;68.00;;;;;;4976938;28;20038;-71
2022/05/27 13:06:19;;;;;;;2.53;1.25;;;18.40;68.00;;;;;;4976809;28;20105;-71
2022/05/27 13:08:50;;;;;;;3.00;0.90;;;18.40;68.00;;;;;;4976539;28;20046;-71
2022/05/27 13:11:34;;;;;;;1.48;0.90;;;18.40;68.00;;;;;;4976584;28;20081;-71
2022/05/27 13:14:08;;;;;;;1.90;1.10;;;18.40;67.90;;;;;;4976246;28;20497;-71
2022/05/27 13:16:48;;;;;;;2.22;1.17;;;18.40;68.00;;;;;;4976579;28;20022;-71
2022/05/27 13:19:22;;;;;;;2.63;0.85;;;18.40;67.90;;;;;;4975150;28;20019;-71
2022/05/27 13:21:58;;;;;;;1.63;0.98;;;18.40;68.00;;;;;;5003877;28;20054;-71
2022/05/27 13:24:38;;;;;;;3.25;1.17;;;18.40;68.00;;;;;;4975144;28;20033;-71
2022/05/27 13:27:14;;;;;;;2.65;1.20;;;18.50;68.00;;;;;;4975234;28;20134;-71
2022/05/27 13:30:06;;;;;;;0.98;0.82;;;18.40;68.00;;;;;;4975086;28;20027;-71
2022/05/27 13:32:52;;;;;;;2.72;1.35;;;18.50;68.00;;;;;;4975058;28;20027;-71
2022/05/27 13:35:17;;;;;;;4.55;1.02;;;18.50;68.00;;;;;;4976010;28;20027;-72
2022/05/27 13:37:57;;;;;;;2.13;1.20;;;18.50;68.10;;;;;;4975048;28;20038;-71
2022/05/27 13:40:24;;;;;;;1.48;1.00;;;18.50;68.10;;;;;;4974803;28;20054;-71
2022/05/27 13:42:52;;;;;;;2.33;1.10;;;18.50;68.00;;;;;;4974451;28;20029;-72
2022/05/27 13:45:42;;;;;;;1.20;1.02;;;18.50;69.00;;;;;;4958758;28;20047;-71
2022/05/27 13:48:36;;;;;;;1.10;0.75;;;18.40;68.00;;;;;;4973808;28;20041;-71